Rossford, Ohio
Current Conditions -  °F | °C
As of 10:53 PM on Monday 20 Oct 2014 (Local Time) from KTDZ Reporting Station
Overcast Overcast  
Wind Chill: 53°   Ceiling: 5500
Heat Index: 53°   Visibility: 9mi
Dew Point: 49°   Wind: 9mph
Humidity: 86%   Direction: 290°WNW
Pressure: 29.87"   Gusts: NA
Location:  41.61°N, 83.56°W
Report Text: KTDZ 210253Z AUTO 29008KT 9SM BKN055 OVC065 12/09 A2987 RMK AO2 RAB01E35 SLP116 P0001 60001 T01170094 51008 TSNO
Loading
Personal Weather Stations






























Interactive Weather Map
Tropical Storm Tracking
New forecast layout! Learn more

10-Day Weather Forecast

Advertisements
Track Severe Weather on mobile